createdAt,value
2019-04-07T00:09:50.321Z,51.00
2019-04-07T00:12:22.744Z,55.75
2019-04-07T00:15:32.108Z,51.50
2019-04-07T00:21:13.787Z,56.75
2019-04-07T00:23:58.310Z,51.50
2019-04-07T00:29:49.444Z,53.33
2019-04-07T00:38:30.501Z,53.75
2019-04-07T00:41:02.980Z,53.00
2019-04-07T00:43:53.131Z,51.25
2019-04-07T00:46:24.376Z,55.00
2019-04-07T00:55:14.760Z,53.00
2019-04-07T00:57:45.641Z,48.33
2019-04-07T01:03:18.412Z,49.50
2019-04-07T01:05:49.614Z,59.00
2019-04-07T01:08:39.854Z,60.25
2019-04-07T01:14:13.605Z,50.50
2019-04-07T01:16:57.072Z,55.00
2019-04-07T01:19:47.355Z,55.75
2019-04-07T01:25:27.303Z,48.75
2019-04-07T01:27:58.638Z,55.50
2019-04-07T01:30:50.193Z,52.00
2019-04-07T01:36:41.281Z,48.75
2019-04-07T01:39:32.449Z,59.25
2019-04-07T01:42:41.164Z,51.25
2019-04-07T01:45:51.209Z,50.00
2019-04-07T01:49:03.786Z,49.00
2019-04-07T01:52:28.836Z,51.00
2019-04-07T01:55:24.771Z,53.50
2019-04-07T01:58:17.478Z,52.00
2019-04-07T02:01:29.652Z,51.00
2019-04-07T02:04:46.597Z,60.25
2019-04-07T02:08:01.252Z,49.67
2019-04-07T02:10:56.146Z,49.75
2019-04-07T02:14:07.024Z,47.00
2019-04-07T02:20:50.807Z,50.50
2019-04-07T02:24:01.232Z,49.00
2019-04-07T02:30:41.550Z,47.25
2019-04-07T02:33:54.430Z,47.33
2019-04-07T02:36:48.388Z,50.75
2019-04-07T02:42:58.962Z,51.00
2019-04-07T02:46:10.925Z,47.75
2019-04-07T02:49:00.716Z,44.00
2019-04-07T02:52:11.969Z,42.00
2019-04-07T02:55:03.296Z,44.75
2019-04-07T02:58:12.293Z,42.00
2019-04-07T03:00:54.122Z,42.00
2019-04-07T03:03:44.096Z,43.00
2019-04-07T03:06:54.737Z,45.25
2019-04-07T03:15:57.816Z,43.50
2019-04-07T03:19:11.736Z,39.50
2019-04-07T03:22:21.206Z,44.00
2019-04-07T03:25:15.986Z,43.25
2019-04-07T03:28:37.614Z,40.75
2019-04-07T03:31:36.633Z,36.33
2019-04-07T03:37:34.472Z,40.00
2019-04-07T03:46:36.496Z,42.50
2019-04-07T03:49:47.734Z,37.50
2019-04-07T03:52:58.479Z,34.00
2019-04-07T03:55:49.555Z,42.75
2019-04-07T03:58:58.340Z,36.50
2019-04-07T04:01:48.104Z,37.50
2019-04-07T04:04:56.067Z,40.00
2019-04-07T04:07:45.983Z,35.75
2019-04-07T04:10:55.584Z,39.50
2019-04-07T04:14:04.393Z,41.33
2019-04-07T04:16:54.729Z,34.25
2019-04-07T04:19:27.012Z,34.67
2019-04-07T04:22:16.104Z,39.67
2019-04-07T04:24:55.569Z,38.00
2019-04-07T04:27:47.017Z,38.50
2019-04-07T04:30:17.483Z,36.67
2019-04-07T04:35:57.534Z,37.25
2019-04-07T04:38:46.886Z,40.00
2019-04-07T04:41:18.966Z,43.33
2019-04-07T04:44:11.623Z,36.75
2019-04-07T04:46:42.650Z,33.00
2019-04-07T04:49:33.794Z,41.50
2019-04-07T04:52:05.238Z,40.50
2019-04-07T04:54:57.141Z,38.00
2019-04-07T04:57:40.489Z,41.75
2019-04-07T05:00:30.712Z,38.00
2019-04-07T05:03:21.567Z,37.50
2019-04-07T05:06:13.292Z,34.75
2019-04-07T05:09:06.887Z,33.00
2019-04-07T05:11:58.707Z,33.50
2019-04-07T05:17:52.026Z,32.25
2019-04-07T05:20:23.185Z,34.50
2019-04-07T05:22:54.470Z,34.75
2019-04-07T05:25:28.360Z,36.00
2019-04-07T05:28:19.126Z,39.75
2019-04-07T05:31:03.525Z,35.50
2019-04-07T05:33:47.865Z,37.75
2019-04-07T05:36:37.886Z,34.00
2019-04-07T05:42:18.897Z,32.75
2019-04-07T05:45:10.037Z,31.75
2019-04-07T05:50:43.867Z,35.33
2019-04-07T05:53:28.979Z,33.00
2019-04-07T05:58:52.937Z,31.00
2019-04-07T06:07:16.132Z,27.00
2019-04-07T06:10:06.755Z,28.67
2019-04-07T06:12:56.518Z,29.67
2019-04-07T06:15:28.173Z,28.33
2019-04-07T06:18:18.487Z,28.50
2019-04-07T06:21:14.118Z,27.25
2019-04-07T06:24:06.364Z,29.75
2019-04-07T06:26:37.217Z,30.33
2019-04-07T06:29:07.654Z,24.67
2019-04-07T06:31:41.436Z,26.33
2019-04-07T06:34:32.627Z,31.50
2019-04-07T06:37:05.724Z,28.25
2019-04-07T06:39:54.977Z,28.33
2019-04-07T06:42:26.719Z,30.25
2019-04-07T06:48:04.428Z,28.25
2019-04-07T06:51:12.179Z,29.00
2019-04-07T06:57:41.686Z,25.67
2019-04-07T07:00:35.295Z,27.25
2019-04-07T07:03:43.250Z,25.00
2019-04-07T07:06:52.572Z,26.50
2019-04-07T07:10:00.986Z,25.67
2019-04-07T07:12:50.948Z,27.50
2019-04-07T07:15:40.061Z,20.00
2019-04-07T07:18:32.261Z,25.33
2019-04-07T07:21:43.705Z,20.20
2019-04-07T07:24:15.688Z,26.00
2019-04-07T07:27:07.661Z,24.67
2019-04-07T07:29:37.277Z,16.00
2019-04-07T07:32:08.172Z,14.33
2019-04-07T07:34:41.315Z,22.33
2019-04-07T07:37:30.186Z,23.00
2019-04-07T07:40:34.059Z,21.00
2019-04-07T07:43:09.898Z,25.00
2019-04-07T07:45:42.960Z,20.00
2019-04-07T07:48:50.050Z,22.67
2019-04-07T07:51:22.487Z,23.33
2019-04-07T07:54:31.902Z,24.67
2019-04-07T07:57:04.957Z,23.67
2019-04-07T08:00:14.571Z,22.00
2019-04-07T08:06:12.603Z,28.33
2019-04-07T08:12:11.583Z,26.00
2019-04-07T08:18:24.999Z,25.00
2019-04-07T08:21:08.698Z,21.00
2019-04-07T08:23:57.886Z,21.67
2019-04-07T08:26:48.718Z,19.00
2019-04-07T08:29:39.550Z,20.67
2019-04-07T08:32:09.827Z,20.00
2019-04-07T08:34:40.410Z,18.00
2019-04-07T08:37:14.424Z,22.33
2019-04-07T08:40:22.892Z,20.33
2019-04-07T08:43:12.608Z,21.00
2019-04-07T08:46:06.116Z,23.67
2019-04-07T08:51:54.950Z,21.33
2019-04-07T08:54:25.396Z,20.33
2019-04-07T08:57:14.292Z,20.00
2019-04-07T09:00:06.250Z,18.00
2019-04-07T09:05:38.840Z,16.67
2019-04-07T09:08:09.019Z,16.33
2019-04-07T09:16:54.933Z,15.33
2019-04-07T09:19:44.335Z,13.33
2019-04-07T09:22:56.681Z,14.67
2019-04-07T09:25:46.671Z,14.00
2019-04-07T09:29:21.016Z,14.33
2019-04-07T09:32:02.125Z,13.00
2019-04-07T09:35:13.053Z,13.00
2019-04-07T09:38:24.947Z,15.00
2019-04-07T09:41:44.008Z,16.00
2019-04-07T09:44:37.617Z,14.33
2019-04-07T09:47:46.840Z,15.00
2019-04-07T09:50:35.406Z,15.00
2019-04-07T09:54:03.080Z,13.67
2019-04-07T09:56:56.215Z,12.00
2019-04-07T10:00:06.752Z,13.67
2019-04-07T10:02:47.006Z,13.00
2019-04-07T10:05:40.217Z,16.00
2019-04-07T10:08:29.590Z,15.67
2019-04-07T10:11:21.950Z,12.00
2019-04-07T10:17:37.243Z,13.00
2019-04-07T10:23:21.980Z,11.00
2019-04-07T10:26:11.720Z,11.67
2019-04-07T10:29:12.236Z,11.50
2019-04-07T10:32:24.730Z,9.00
2019-04-07T10:35:33.528Z,6.67
2019-04-07T10:41:27.274Z,10.75
2019-04-07T10:44:44.679Z,9.00
2019-04-07T10:47:55.167Z,10.00
2019-04-07T10:50:36.721Z,9.67
2019-04-07T10:53:47.292Z,7.40
2019-04-07T10:56:40.011Z,8.00
2019-04-07T10:59:30.808Z,6.00
2019-04-07T11:02:23.753Z,6.00
2019-04-07T11:05:33.523Z,7.80
2019-04-07T11:08:43.851Z,8.00
2019-04-07T11:11:35.970Z,6.80
2019-04-07T11:14:41.722Z,7.40
2019-04-07T11:17:39.537Z,6.00
2019-04-07T11:20:30.160Z,7.80
2019-04-07T11:23:54.445Z,5.00
2019-04-07T11:26:31.974Z,8.00
2019-04-07T11:29:42.678Z,7.80
2019-04-07T11:39:32.720Z,5.20
2019-04-07T11:42:42.999Z,5.00
2019-04-07T11:45:35.239Z,7.00
2019-04-07T11:48:44.877Z,5.00
2019-04-07T11:54:44.721Z,5.00
2019-04-07T12:00:45.209Z,5.40
2019-04-07T12:03:37.520Z,5.00
2019-04-07T12:09:30.552Z,6.00
2019-04-07T12:12:41.959Z,6.00
2019-04-07T12:15:56.851Z,6.00
2019-04-07T12:19:08.745Z,6.00
2019-04-07T12:22:19.540Z,4.20
2019-04-07T12:28:40.174Z,7.00
2019-04-07T12:44:15.857Z,5.80
2019-04-07T12:47:06.576Z,6.40
2019-04-07T12:50:18.879Z,5.60
2019-04-07T12:56:38.021Z,6.00
2019-04-07T13:02:51.656Z,5.00
2019-04-07T13:05:46.420Z,5.00
2019-04-07T13:15:52.048Z,6.00
2019-04-07T13:18:46.662Z,5.40
2019-04-07T13:21:59.400Z,6.00
2019-04-07T13:24:48.785Z,5.00
2019-04-07T13:27:58.858Z,5.00
2019-04-07T13:34:08.331Z,5.40
2019-04-07T13:36:58.023Z,6.40
2019-04-07T13:40:10.050Z,5.00
2019-04-07T13:43:01.950Z,5.00
2019-04-07T13:48:59.184Z,6.67
2019-04-07T13:52:20.837Z,7.20
2019-04-07T13:54:59.127Z,5.33
2019-04-07T14:01:23.858Z,5.60
2019-04-07T14:04:55.725Z,5.80
2019-04-07T14:07:55.122Z,6.00
2019-04-07T14:10:55.358Z,6.20
2019-04-07T14:13:46.998Z,7.20
2019-04-07T14:16:57.366Z,6.00
2019-04-07T14:19:47.635Z,7.00
2019-04-07T14:22:57.793Z,7.80
2019-04-07T14:26:00.307Z,6.60
2019-04-07T14:32:18.482Z,5.00
2019-04-07T14:38:08.904Z,6.33
2019-04-07T14:41:15.933Z,5.40
2019-04-07T14:43:55.508Z,6.60
2019-04-07T14:47:06.481Z,5.00
2019-04-07T14:50:00.560Z,8.00
2019-04-07T14:53:10.991Z,6.00
2019-04-07T14:56:04.607Z,6.20
2019-04-07T14:59:12.976Z,8.00
2019-04-07T15:02:04.250Z,6.60
2019-04-07T15:11:43.327Z,6.80
2019-04-07T15:14:19.121Z,7.00
2019-04-07T15:17:14.559Z,6.80
2019-04-07T15:19:46.237Z,6.00
2019-04-07T15:22:22.632Z,7.20
2019-04-07T15:28:17.478Z,8.33
2019-04-07T15:31:08.661Z,9.00
2019-04-07T15:37:24.720Z,6.40
2019-04-07T15:40:15.299Z,5.40
2019-04-07T15:42:50.545Z,6.60
2019-04-07T15:55:05.186Z,8.00
2019-04-07T15:57:38.037Z,5.00
2019-04-07T16:00:16.539Z,9.00
2019-04-07T16:02:52.643Z,6.67
2019-04-07T16:08:27.889Z,8.00
2019-04-07T16:11:17.749Z,8.00
2019-04-07T16:13:50.420Z,7.00
2019-04-07T16:16:26.540Z,7.40
2019-04-07T16:18:55.824Z,8.60
2019-04-07T16:21:46.513Z,6.00
2019-04-07T16:24:37.414Z,6.00
2019-04-07T16:30:28.324Z,7.40
2019-04-07T16:32:50.120Z,6.20
2019-04-07T16:41:53.403Z,6.00
2019-04-07T16:44:45.971Z,7.40
2019-04-07T16:47:42.201Z,7.33
2019-04-07T16:50:18.157Z,5.40
2019-04-07T16:53:28.131Z,6.60
2019-04-07T16:56:20.676Z,6.00
2019-04-07T16:58:50.837Z,6.00
2019-04-07T17:04:53.875Z,8.40
2019-04-07T17:07:47.296Z,6.40
2019-04-07T17:10:37.874Z,8.00
2019-04-07T17:13:16.970Z,7.00
2019-04-07T17:16:00.648Z,8.00
2019-04-07T17:21:53.432Z,7.00
2019-04-07T17:24:28.632Z,7.20
2019-04-07T17:27:18.254Z,7.67
2019-04-07T17:30:10.098Z,7.33
2019-04-07T17:32:50.734Z,8.00
2019-04-07T17:38:24.873Z,7.60
2019-04-07T17:41:18.492Z,8.00
2019-04-07T17:47:37.784Z,6.00
2019-04-07T17:50:47.673Z,9.60
2019-04-07T17:53:57.362Z,7.00
2019-04-07T17:57:06.872Z,8.33
2019-04-07T17:59:56.661Z,8.00
2019-04-07T18:03:09.721Z,7.00
2019-04-07T18:06:03.804Z,9.00
2019-04-07T18:09:19.666Z,7.00
2019-04-07T18:12:25.768Z,9.60
2019-04-07T18:15:36.664Z,9.33
2019-04-07T18:21:44.946Z,8.33
2019-04-07T18:24:21.373Z,9.33
2019-04-07T18:27:14.185Z,9.67
2019-04-07T18:30:03.442Z,11.67
2019-04-07T18:33:16.346Z,10.00
2019-04-07T18:36:05.664Z,10.25
2019-04-07T18:39:18.222Z,11.25
2019-04-07T18:45:12.183Z,11.00
2019-04-07T18:48:02.297Z,11.00
2019-04-07T18:51:33.588Z,10.00
2019-04-07T18:54:24.851Z,10.50
2019-04-07T18:57:33.592Z,10.67
2019-04-07T19:00:24.465Z,9.00
2019-04-07T19:03:33.959Z,15.00
2019-04-07T19:06:23.698Z,10.67
2019-04-07T19:09:33.196Z,11.00
2019-04-07T19:12:23.007Z,10.67
2019-04-07T19:15:37.090Z,9.67
2019-04-07T19:18:27.135Z,13.00
2019-04-07T19:21:37.647Z,10.00
2019-04-07T19:24:30.167Z,13.00
2019-04-07T19:31:00.494Z,13.67
2019-04-07T19:34:09.882Z,13.00
2019-04-07T19:37:22.441Z,13.00
2019-04-07T19:40:18.781Z,13.00
2019-04-07T19:42:55.134Z,11.33
2019-04-07T19:46:04.883Z,13.75
2019-04-07T19:49:07.860Z,13.00
2019-04-07T19:52:07.069Z,13.00
2019-04-07T19:55:14.964Z,13.00
2019-04-07T19:58:26.361Z,13.00
2019-04-07T20:01:29.153Z,10.25
2019-04-07T20:04:37.411Z,10.67
2019-04-07T20:07:30.169Z,12.00
2019-04-07T20:10:39.275Z,10.50
2019-04-07T20:13:42.659Z,14.00
2019-04-07T20:19:22.207Z,12.00
2019-04-07T20:22:24.963Z,9.33
2019-04-07T20:25:37.897Z,13.67
2019-04-07T20:28:49.879Z,11.33
2019-04-07T20:31:58.567Z,14.00
2019-04-07T20:35:08.666Z,10.00
2019-04-07T20:38:19.305Z,12.00
2019-04-07T20:41:46.978Z,12.00
2019-04-07T20:44:35.343Z,12.00
2019-04-07T20:47:44.580Z,11.00
2019-04-07T20:50:34.270Z,12.00
2019-04-07T20:53:33.608Z,12.00
2019-04-07T20:56:44.605Z,11.00
2019-04-07T21:00:03.691Z,14.75
2019-04-07T21:03:14.130Z,11.00
2019-04-07T21:06:10.514Z,11.00
2019-04-07T21:08:49.676Z,8.33
2019-04-07T21:11:53.432Z,14.50
2019-04-07T21:14:33.605Z,11.00
2019-04-07T21:17:42.293Z,12.00
2019-04-07T21:20:32.168Z,15.00
2019-04-07T21:23:41.255Z,12.00
2019-04-07T21:26:31.964Z,13.67
2019-04-07T21:29:43.406Z,14.67
2019-04-07T21:32:32.065Z,13.67
2019-04-07T21:35:34.751Z,15.33
2019-04-07T21:38:23.208Z,19.00
2019-04-07T21:41:31.477Z,19.67
2019-04-07T21:44:20.296Z,19.33
2019-04-07T21:47:29.200Z,18.67
2019-04-07T21:50:40.044Z,21.00
2019-04-07T21:53:47.474Z,18.00
2019-04-07T21:56:36.940Z,18.00
2019-04-07T21:59:45.768Z,19.67
2019-04-07T22:05:57.996Z,20.00
2019-04-07T22:08:47.145Z,21.67
2019-04-07T22:11:36.777Z,20.00
2019-04-07T22:14:08.371Z,24.67
2019-04-07T22:16:40.756Z,23.67
2019-04-07T22:19:29.926Z,23.67
2019-04-07T22:22:00.366Z,22.00
2019-04-07T22:24:38.315Z,21.67
2019-04-07T22:27:09.126Z,20.67
2019-04-07T22:30:00.820Z,17.67
2019-04-07T22:32:31.324Z,21.33
2019-04-07T22:35:21.026Z,21.00
2019-04-07T22:37:54.730Z,22.67
2019-04-07T22:40:43.949Z,19.67
2019-04-07T22:46:16.534Z,22.00
2019-04-07T22:51:48.295Z,21.00
2019-04-07T22:54:18.829Z,22.67
2019-04-07T22:59:59.992Z,22.33
2019-04-07T23:02:36.308Z,21.00
2019-04-07T23:08:14.817Z,24.33
2019-04-07T23:10:44.965Z,23.67
2019-04-07T23:13:15.438Z,22.67
2019-04-07T23:16:10.825Z,25.33
2019-04-07T23:18:38.202Z,24.00
2019-04-07T23:21:28.525Z,25.33
2019-04-07T23:23:58.829Z,27.33
2019-04-07T23:26:48.790Z,24.33
2019-04-07T23:29:19.907Z,27.00
2019-04-07T23:32:09.553Z,25.33
2019-04-07T23:34:41.537Z,22.33
2019-04-07T23:37:13.182Z,21.00
2019-04-07T23:39:43.963Z,21.00
2019-04-07T23:44:55.816Z,21.33
2019-04-07T23:50:27.301Z,20.67
2019-04-07T23:53:09.859Z,23.33
2019-04-07T23:55:59.552Z,22.67
2019-04-07T23:58:33.591Z,30.50
